createdAt,value
2018-11-28T00:00:37.481Z,4.55
2018-11-28T00:03:08.631Z,6.67
2018-11-28T00:05:37.182Z,4.92
2018-11-28T00:08:05.652Z,4.80
2018-11-28T00:10:34.147Z,4.62
2018-11-28T00:13:02.604Z,7.67
2018-11-28T00:15:31.135Z,5.83
2018-11-28T00:17:59.619Z,5.17
2018-11-28T00:20:28.096Z,4.95
2018-11-28T00:22:56.549Z,9.33
2018-11-28T00:25:25.043Z,6.10
2018-11-28T00:27:53.509Z,6.75
2018-11-28T00:30:23.197Z,8.55
2018-11-28T00:32:51.775Z,7.60
2018-11-28T00:35:21.347Z,6.45
2018-11-28T00:37:49.815Z,6.72
2018-11-28T00:40:19.485Z,5.20
2018-11-28T00:42:48.005Z,9.25
2018-11-28T00:45:18.996Z,5.47
2018-11-28T00:47:47.543Z,5.90
2018-11-28T00:50:17.948Z,4.97
2018-11-28T00:52:46.516Z,9.15
2018-11-28T00:55:15.859Z,5.62
2018-11-28T00:57:44.503Z,5.33
2018-11-28T01:00:16.128Z,5.00
2018-11-28T01:02:44.577Z,5.10
2018-11-28T01:05:13.671Z,5.45
2018-11-28T01:07:42.634Z,9.23
2018-11-28T01:10:13.355Z,5.12
2018-11-28T01:12:41.826Z,5.80
2018-11-28T01:15:11.550Z,8.68
2018-11-28T01:17:40.063Z,6.60
2018-11-28T01:20:12.109Z,6.87
2018-11-28T01:22:40.631Z,7.80
2018-11-28T01:25:11.319Z,6.12
2018-11-28T01:27:39.859Z,6.40
2018-11-28T01:30:13.441Z,6.15
2018-11-28T01:32:41.896Z,9.73
2018-11-28T01:35:11.309Z,11.80
2018-11-28T01:37:40.036Z,7.83
2018-11-28T01:40:11.112Z,7.22
2018-11-28T01:42:39.653Z,7.50
2018-11-28T01:45:09.309Z,7.80
2018-11-28T01:47:37.819Z,6.90
2018-11-28T01:50:08.429Z,9.48
2018-11-28T01:52:36.907Z,6.92
2018-11-28T01:55:07.056Z,6.55
2018-11-28T01:57:35.542Z,5.10
2018-11-28T02:00:04.532Z,6.60
2018-11-28T02:02:33.032Z,6.12
2018-11-28T02:05:01.479Z,7.33
2018-11-28T02:07:29.946Z,12.90
2018-11-28T02:09:58.371Z,7.75
2018-11-28T02:12:26.823Z,6.25
2018-11-28T02:14:55.309Z,5.40
2018-11-28T02:17:23.803Z,5.20
2018-11-28T02:19:52.254Z,7.72
2018-11-28T02:22:20.768Z,6.50
2018-11-28T02:24:49.233Z,6.42
2018-11-28T02:27:17.740Z,5.60
2018-11-28T02:29:46.192Z,6.37
2018-11-28T02:32:14.705Z,9.78
2018-11-28T02:34:43.165Z,6.37
2018-11-28T02:37:11.675Z,5.75
2018-11-28T02:39:40.122Z,7.35
2018-11-28T02:42:08.581Z,5.58
2018-11-28T02:44:37.097Z,12.20
2018-11-28T02:47:05.706Z,8.45
2018-11-28T02:49:34.160Z,12.85
2018-11-28T02:52:17.908Z,6.10
2018-11-28T02:54:46.338Z,5.78
2018-11-28T02:57:14.794Z,9.38
2018-11-28T02:59:43.229Z,9.28
2018-11-28T03:02:11.687Z,9.25
2018-11-28T03:04:40.209Z,9.58
2018-11-28T03:07:08.663Z,7.80
2018-11-28T03:09:37.097Z,6.62
2018-11-28T03:12:05.592Z,8.75
2018-11-28T03:14:34.237Z,6.10
2018-11-28T03:17:02.744Z,9.43
2018-11-28T03:19:31.204Z,8.58
2018-11-28T03:21:59.695Z,15.60
2018-11-28T03:24:28.132Z,6.08
2018-11-28T03:26:56.600Z,7.58
2018-11-28T03:29:25.036Z,5.67
2018-11-28T03:31:53.505Z,6.28
2018-11-28T03:34:21.899Z,8.57
2018-11-28T03:36:50.322Z,8.83
2018-11-28T03:39:18.776Z,5.37
2018-11-28T03:41:47.207Z,6.15
2018-11-28T03:44:15.737Z,5.97
2018-11-28T03:46:44.172Z,10.60
2018-11-28T03:49:12.689Z,6.80
2018-11-28T03:51:41.158Z,5.85
2018-11-28T03:54:09.660Z,6.67
2018-11-28T03:56:38.097Z,6.50
2018-11-28T03:59:06.728Z,5.53
2018-11-28T04:01:35.153Z,5.83
2018-11-28T04:04:03.706Z,7.35
2018-11-28T04:06:32.153Z,16.85
2018-11-28T04:09:00.647Z,13.88
2018-11-28T04:11:29.111Z,11.80
2018-11-28T04:13:57.624Z,5.40
2018-11-28T04:16:26.082Z,9.10
2018-11-28T04:18:54.588Z,7.15
2018-11-28T04:21:23.028Z,8.28
2018-11-28T04:23:51.539Z,5.35
2018-11-28T04:26:19.963Z,6.28
2018-11-28T04:28:48.420Z,6.58
2018-11-28T04:31:16.975Z,8.53
2018-11-28T04:33:45.432Z,6.95
2018-11-28T04:36:13.933Z,6.80
2018-11-28T04:38:42.388Z,5.92
2018-11-28T04:41:10.910Z,6.45
2018-11-28T04:43:39.408Z,11.85
2018-11-28T04:46:07.850Z,8.90
2018-11-28T04:48:36.363Z,6.35
2018-11-28T04:51:04.824Z,9.70
2018-11-28T04:53:33.332Z,6.70
2018-11-28T04:56:01.787Z,6.17
2018-11-28T04:58:30.235Z,8.60
2018-11-28T05:00:58.764Z,8.65
2018-11-28T05:03:27.262Z,15.10
2018-11-28T05:05:55.729Z,12.55
2018-11-28T05:08:24.229Z,10.88
2018-11-28T05:10:52.747Z,12.23
2018-11-28T05:13:21.216Z,9.93
2018-11-28T05:15:49.651Z,10.90
2018-11-28T05:18:18.032Z,10.53
2018-11-28T05:20:46.532Z,9.33
2018-11-28T05:23:14.967Z,10.43
2018-11-28T05:25:43.500Z,8.38
2018-11-28T05:28:11.963Z,10.70
2018-11-28T05:30:40.595Z,14.07
2018-11-28T05:33:09.033Z,16.15
2018-11-28T05:35:38.754Z,8.83
2018-11-28T05:38:08.851Z,26.07
2018-11-28T05:40:37.364Z,10.60
2018-11-28T05:43:06.235Z,11.85
2018-11-28T05:45:34.740Z,9.05
2018-11-28T05:48:03.185Z,8.95
2018-11-28T05:50:31.691Z,8.13
2018-11-28T05:53:00.165Z,13.55
2018-11-28T05:55:28.664Z,24.82
2018-11-28T05:57:57.103Z,5.97
2018-11-28T06:00:31.300Z,17.02
2018-11-28T06:02:59.828Z,15.90
2018-11-28T06:05:28.228Z,14.90
2018-11-28T06:07:56.596Z,13.20
2018-11-28T06:10:24.987Z,8.53
2018-11-28T06:12:53.453Z,19.25
2018-11-28T06:15:21.847Z,16.80
2018-11-28T06:17:50.257Z,20.70
2018-11-28T06:20:18.622Z,10.63
2018-11-28T06:22:47.010Z,11.23
2018-11-28T06:25:16.873Z,18.32
2018-11-28T06:27:44.926Z,12.60
2018-11-28T06:30:14.427Z,8.33
2018-11-28T06:32:42.965Z,13.83
2018-11-28T06:35:11.747Z,12.23
2018-11-28T06:37:40.332Z,44.33
2018-11-28T06:40:12.841Z,46.98
2018-11-28T06:42:41.323Z,15.13
2018-11-28T06:45:12.097Z,31.63
2018-11-28T06:47:40.715Z,19.30
2018-11-28T06:50:11.751Z,10.88
2018-11-28T06:52:40.207Z,24.80
2018-11-28T06:55:10.561Z,12.82
2018-11-28T06:57:39.058Z,14.25
2018-11-28T07:00:13.305Z,20.77
2018-11-28T07:02:42.051Z,13.72
2018-11-28T07:05:11.024Z,5.75
2018-11-28T07:07:39.528Z,7.00
2018-11-28T07:10:09.943Z,11.22
2018-11-28T07:12:38.395Z,12.78
2018-11-28T07:15:09.140Z,15.48
2018-11-28T07:17:37.659Z,14.20
2018-11-28T07:20:07.231Z,13.60
2018-11-28T07:22:35.744Z,7.67
2018-11-28T07:25:04.703Z,11.40
2018-11-28T07:27:33.207Z,8.30
2018-11-28T07:30:01.804Z,10.58
2018-11-28T07:32:30.239Z,7.20
2018-11-28T07:34:58.695Z,35.35
2018-11-28T07:37:27.245Z,25.90
2018-11-28T07:39:55.756Z,27.67
2018-11-28T07:42:24.198Z,17.92
2018-11-28T07:44:52.695Z,15.10
2018-11-28T07:47:21.167Z,22.55
2018-11-28T07:49:49.654Z,16.93
2018-11-28T07:52:18.115Z,20.65
2018-11-28T07:54:46.619Z,6.62
2018-11-28T07:57:15.132Z,25.35
2018-11-28T07:59:43.696Z,10.25
2018-11-28T08:02:12.161Z,20.82
2018-11-28T08:04:40.579Z,13.83
2018-11-28T08:07:09.124Z,12.30
2018-11-28T08:09:37.526Z,34.07
2018-11-28T08:12:06.463Z,39.35
2018-11-28T08:14:34.895Z,34.07
2018-11-28T08:17:03.260Z,26.30
2018-11-28T08:19:31.637Z,35.40
2018-11-28T08:22:00.003Z,37.40
2018-11-28T08:24:28.435Z,28.73
2018-11-28T08:26:56.878Z,27.05
2018-11-28T08:29:25.280Z,20.30
2018-11-28T08:31:53.719Z,31.90
2018-11-28T08:34:23.570Z,26.82
2018-11-28T08:36:50.744Z,19.40
2018-11-28T08:39:19.199Z,30.70
2018-11-28T08:41:47.659Z,35.27
2018-11-28T08:44:16.079Z,46.83
2018-11-28T08:46:44.518Z,30.60
2018-11-28T08:49:12.907Z,30.90
2018-11-28T08:51:41.312Z,22.40
2018-11-28T08:54:09.772Z,22.47
2018-11-28T08:56:38.163Z,22.23
2018-11-28T08:59:06.761Z,21.67
2018-11-28T09:01:35.241Z,20.83
2018-11-28T09:04:03.713Z,23.97
2018-11-28T09:06:32.100Z,24.27
2018-11-28T09:09:00.567Z,48.20
2018-11-28T09:11:28.951Z,27.70
2018-11-28T09:13:57.311Z,20.60
2018-11-28T09:16:25.741Z,18.10
2018-11-28T09:18:54.226Z,20.60
2018-11-28T09:21:22.615Z,25.50
2018-11-28T09:23:51.048Z,21.20
2018-11-28T09:26:19.539Z,18.73
2018-11-28T09:28:48.393Z,25.93
2018-11-28T09:31:17.043Z,15.57
2018-11-28T09:33:45.403Z,16.17
2018-11-28T09:36:13.888Z,18.70
2018-11-28T09:38:42.248Z,14.53
2018-11-28T09:41:10.636Z,18.87
2018-11-28T09:43:38.995Z,26.87
2018-11-28T09:46:07.528Z,15.23
2018-11-28T09:48:35.968Z,23.87
2018-11-28T09:51:04.328Z,17.90
2018-11-28T09:53:32.745Z,20.90
2018-11-28T09:56:01.116Z,20.23
2018-11-28T09:58:29.527Z,23.77
2018-11-28T10:00:57.972Z,18.20
2018-11-28T10:03:26.358Z,13.20
2018-11-28T10:05:54.729Z,18.47
2018-11-28T10:08:23.114Z,21.70
2018-11-28T10:10:51.671Z,22.43
2018-11-28T10:13:20.087Z,21.50
2018-11-28T10:15:48.443Z,16.47
2018-11-28T10:18:16.852Z,19.20
2018-11-28T10:20:45.220Z,19.60
2018-11-28T10:23:13.617Z,14.90
2018-11-28T10:25:41.967Z,18.17
2018-11-28T10:28:10.414Z,16.17
2018-11-28T10:30:39.447Z,21.17
2018-11-28T10:33:12.140Z,21.10
2018-11-28T10:35:41.241Z,14.70
2018-11-28T10:38:09.852Z,16.60
2018-11-28T10:40:38.487Z,19.53
2018-11-28T10:43:08.083Z,12.33
2018-11-28T10:45:37.145Z,18.93
2018-11-28T10:48:06.500Z,16.10
2018-11-28T10:50:36.440Z,21.50
2018-11-28T10:53:04.812Z,19.20
2018-11-28T10:55:33.304Z,17.73
2018-11-28T10:58:01.764Z,14.73
2018-11-28T11:01:34.947Z,11.43
2018-11-28T11:04:08.696Z,14.87
2018-11-28T11:07:43.304Z,11.83
2018-11-28T11:10:16.942Z,12.93
2018-11-28T11:12:50.739Z,18.37
2018-11-28T11:15:19.223Z,22.10
2018-11-28T11:17:47.583Z,24.37
2018-11-28T11:20:15.946Z,16.63
2018-11-28T11:22:44.372Z,14.30
2018-11-28T11:25:12.808Z,15.60
2018-11-28T11:27:41.182Z,19.37
2018-11-28T11:30:10.822Z,13.00
2018-11-28T11:32:39.207Z,16.37
2018-11-28T11:35:09.078Z,11.90
2018-11-28T11:37:37.695Z,11.07
2018-11-28T11:40:11.715Z,12.70
2018-11-28T11:42:40.183Z,8.30
2018-11-28T11:45:14.492Z,8.30
2018-11-28T11:47:43.196Z,8.47
2018-11-28T11:50:14.723Z,7.67
2018-11-28T11:52:43.239Z,14.30
2018-11-28T11:55:17.740Z,8.07
2018-11-28T11:57:46.443Z,10.73
2018-11-28T12:00:17.245Z,12.93
2018-11-28T12:02:49.760Z,10.13
2018-11-28T12:05:18.211Z,6.00
2018-11-28T12:07:46.598Z,11.97
2018-11-28T12:10:15.155Z,10.17
2018-11-28T12:12:43.540Z,4.70
2018-11-28T12:15:15.022Z,4.73
2018-11-28T12:17:46.594Z,4.67
2018-11-28T12:20:21.100Z,6.80
2018-11-28T12:22:49.477Z,6.07
2018-11-28T12:25:17.853Z,4.70
2018-11-28T12:27:46.233Z,7.10
2018-11-28T12:30:15.358Z,16.03
2018-11-28T12:32:44.460Z,5.50
2018-11-28T12:35:18.023Z,5.40
2018-11-28T12:37:46.479Z,5.63
2018-11-28T12:40:15.704Z,3.30
2018-11-28T12:42:45.656Z,5.30
2018-11-28T12:45:16.874Z,5.10
2018-11-28T12:47:46.190Z,4.87
2018-11-28T12:50:24.844Z,5.23
2018-11-28T12:52:54.215Z,10.20
2018-11-28T12:55:23.090Z,8.30
2018-11-28T12:57:52.534Z,7.23
2018-11-28T13:00:23.928Z,11.73
2018-11-28T13:02:52.303Z,7.03
2018-11-28T13:05:21.779Z,7.63
2018-11-28T13:07:50.156Z,6.13
2018-11-28T13:10:19.848Z,6.20
2018-11-28T13:12:49.007Z,5.33
2018-11-28T13:15:18.462Z,4.47
2018-11-28T13:17:46.923Z,8.77
2018-11-28T13:20:16.360Z,4.20
2018-11-28T13:22:45.387Z,7.10
2018-11-28T13:25:15.026Z,7.83
2018-11-28T13:27:43.715Z,5.53
2018-11-28T13:30:17.108Z,8.33
2018-11-28T13:32:45.891Z,8.40
2018-11-28T13:35:15.331Z,4.27
2018-11-28T13:37:44.903Z,10.07
2018-11-28T13:40:14.344Z,7.00
2018-11-28T13:42:42.993Z,7.62
2018-11-28T13:45:21.064Z,7.67
2018-11-28T13:47:52.344Z,8.30
2018-11-28T13:50:20.752Z,6.10
2018-11-28T13:52:49.543Z,10.53
2018-11-28T13:55:41.948Z,6.47
2018-11-28T13:57:53.952Z,17.43
2018-11-28T14:00:22.447Z,4.67
2018-11-28T14:02:50.811Z,4.97
2018-11-28T14:05:19.215Z,8.67
2018-11-28T14:07:47.716Z,4.33
2018-11-28T14:10:16.280Z,7.83
2018-11-28T14:12:44.680Z,7.83
2018-11-28T14:15:17.032Z,12.00
2018-11-28T14:17:47.874Z,5.92
2018-11-28T14:20:16.329Z,10.20
2018-11-28T14:22:44.732Z,13.17
2018-11-28T14:25:13.995Z,12.03
2018-11-28T14:27:42.724Z,7.83
2018-11-28T14:30:18.275Z,9.00
2018-11-28T14:32:47.052Z,6.40
2018-11-28T14:35:15.703Z,9.53
2018-11-28T14:37:44.212Z,8.47
2018-11-28T14:40:20.511Z,9.00
2018-11-28T14:42:52.247Z,11.37
2018-11-28T14:45:20.816Z,8.20
2018-11-28T14:47:50.053Z,13.03
2018-11-28T14:50:21.488Z,10.37
2018-11-28T14:52:50.075Z,11.33
2018-11-28T14:55:20.582Z,12.43
2018-11-28T14:57:49.001Z,12.80
2018-11-28T15:00:19.476Z,9.90
2018-11-28T15:02:50.134Z,9.30
2018-11-28T15:07:01.059Z,15.33
2018-11-28T15:09:36.248Z,10.23
2018-11-28T15:12:11.634Z,13.73
2018-11-28T15:14:35.936Z,17.30
2018-11-28T15:17:04.315Z,17.17
2018-11-28T15:19:32.692Z,14.70
2018-11-28T15:22:01.099Z,12.90
2018-11-28T15:24:29.627Z,11.10
2018-11-28T15:26:57.995Z,15.70
2018-11-28T15:29:26.403Z,12.43
2018-11-28T15:31:54.856Z,15.57
2018-11-28T15:34:23.342Z,13.53
2018-11-28T15:36:51.714Z,11.50
2018-11-28T15:39:20.091Z,13.17
2018-11-28T15:41:48.452Z,13.80
2018-11-28T15:44:16.866Z,14.77
2018-11-28T15:46:45.259Z,69.07
2018-11-28T15:49:13.734Z,25.67
2018-11-28T15:51:42.171Z,11.77
2018-11-28T15:54:10.551Z,12.63
2018-11-28T15:56:38.944Z,13.20
2018-11-28T15:59:07.746Z,11.23
2018-11-28T16:01:36.123Z,13.00
2018-11-28T16:04:04.617Z,17.63
2018-11-28T16:06:33.068Z,16.03
2018-11-28T16:09:01.471Z,14.97
2018-11-28T16:11:29.826Z,14.03
2018-11-28T16:13:58.251Z,16.27
2018-11-28T16:16:26.616Z,17.23
2018-11-28T16:18:57.831Z,16.50
2018-11-28T16:21:23.636Z,12.30
2018-11-28T16:23:52.667Z,14.93
2018-11-28T16:26:20.439Z,17.73
2018-11-28T16:28:48.899Z,18.37
2018-11-28T16:31:17.408Z,20.30
2018-11-28T16:33:45.763Z,12.80
2018-11-28T16:36:14.184Z,29.27
2018-11-28T16:38:42.624Z,16.07
2018-11-28T16:41:11.026Z,9.13
2018-11-28T16:43:39.491Z,19.57
2018-11-28T16:46:07.883Z,21.53
2018-11-28T16:48:36.360Z,14.03
2018-11-28T16:51:04.752Z,17.20
2018-11-28T16:53:33.207Z,20.00
2018-11-28T16:56:01.612Z,16.60
2018-11-28T16:58:30.068Z,13.70
2018-11-28T17:00:58.469Z,14.40
2018-11-28T17:03:26.936Z,18.80
2018-11-28T17:05:55.328Z,16.03
2018-11-28T17:08:23.782Z,21.73
2018-11-28T17:10:52.196Z,19.33
2018-11-28T17:13:20.595Z,35.57
2018-11-28T17:15:49.063Z,19.00
2018-11-28T17:18:17.560Z,20.10
2018-11-28T17:20:46.015Z,13.57
2018-11-28T17:23:14.371Z,13.10
2018-11-28T17:25:42.780Z,13.87
2018-11-28T17:28:11.235Z,22.80
2018-11-28T17:30:39.742Z,18.90
2018-11-28T17:33:08.143Z,17.73
2018-11-28T17:35:36.588Z,17.47
2018-11-28T17:38:05.095Z,19.60
2018-11-28T17:40:33.551Z,23.13
2018-11-28T17:43:01.948Z,16.27
2018-11-28T17:45:30.613Z,16.30
2018-11-28T17:47:59.024Z,21.13
2018-11-28T17:50:27.699Z,17.57
2018-11-28T17:53:00.920Z,18.30
2018-11-28T17:55:30.876Z,23.70
2018-11-28T17:57:59.294Z,25.10
2018-11-28T18:00:27.660Z,19.43
2018-11-28T18:02:56.043Z,22.40
2018-11-28T18:05:24.403Z,17.27
2018-11-28T18:07:52.791Z,23.10
2018-11-28T18:10:21.994Z,20.17
2018-11-28T18:13:02.385Z,27.63
2018-11-28T18:15:30.742Z,16.73
2018-11-28T18:17:59.130Z,15.10
2018-11-28T18:20:27.596Z,21.33
2018-11-28T18:22:55.991Z,20.03
2018-11-28T18:25:25.492Z,19.87
2018-11-28T18:27:53.971Z,19.77
2018-11-28T18:30:22.356Z,21.13
2018-11-28T18:32:50.753Z,27.40
2018-11-28T18:35:19.134Z,23.43
2018-11-28T18:37:47.579Z,19.03
2018-11-28T18:40:15.992Z,18.83
2018-11-28T18:42:44.431Z,21.37
2018-11-28T18:45:15.091Z,26.87
2018-11-28T18:47:43.456Z,28.17
2018-11-28T18:50:12.698Z,23.27
2018-11-28T18:52:41.128Z,29.07
2018-11-28T18:55:16.602Z,64.87
2018-11-28T18:57:41.993Z,32.83
2018-11-28T19:00:19.681Z,30.80
2018-11-28T19:02:48.085Z,36.00
2018-11-28T19:05:16.570Z,37.33
2018-11-28T19:07:45.027Z,31.87
2018-11-28T19:10:15.458Z,28.97
2018-11-28T19:12:43.844Z,29.07
2018-11-28T19:15:18.158Z,38.57
2018-11-28T19:17:47.152Z,37.97
2018-11-28T19:20:19.546Z,37.73
2018-11-28T19:22:48.526Z,42.40
2018-11-28T19:25:17.935Z,40.23
2018-11-28T19:27:46.711Z,38.57
2018-11-28T19:30:20.445Z,39.07
2018-11-28T19:32:48.901Z,46.80
2018-11-28T19:35:17.304Z,44.90
2018-11-28T19:37:45.768Z,51.13
2018-11-28T19:40:21.739Z,58.73
2018-11-28T19:42:50.325Z,47.70
2018-11-28T19:45:18.708Z,55.87
2018-11-28T19:47:47.068Z,62.43
2018-11-28T19:50:20.087Z,44.23
2018-11-28T19:52:48.527Z,58.47
2018-11-28T19:55:16.907Z,57.40
2018-11-28T19:57:45.295Z,39.07
2018-11-28T20:00:15.653Z,52.33
2018-11-28T20:02:44.637Z,59.03
2018-11-28T20:05:15.207Z,59.23
2018-11-28T20:07:48.978Z,39.60
2018-11-28T20:10:18.579Z,52.00
2018-11-28T20:12:47.060Z,73.43
2018-11-28T20:15:17.672Z,60.13
2018-11-28T20:17:46.173Z,67.47
2018-11-28T20:20:15.555Z,56.20
2018-11-28T20:22:43.981Z,53.93
2018-11-28T20:25:17.232Z,83.37
2018-11-28T20:27:47.172Z,62.67
2018-11-28T20:30:17.043Z,70.83
2018-11-28T20:32:45.431Z,70.47
2018-11-28T20:35:13.842Z,61.97
2018-11-28T20:37:42.615Z,58.43
2018-11-28T20:40:16.123Z,69.10
2018-11-28T20:42:46.971Z,57.40
2018-11-28T20:45:15.565Z,58.53
2018-11-28T20:47:44.031Z,74.40
2018-11-28T20:50:22.024Z,60.77
2018-11-28T20:52:55.020Z,66.80
2018-11-28T20:55:21.381Z,78.83
2018-11-28T20:57:49.773Z,62.07
2018-11-28T21:00:21.361Z,57.37
2018-11-28T21:02:49.874Z,76.87
2018-11-28T21:05:18.252Z,69.43
2018-11-28T21:07:46.622Z,80.63
2018-11-28T21:10:21.171Z,78.60
2018-11-28T21:12:49.672Z,83.63
2018-11-28T21:15:18.123Z,80.63
2018-11-28T21:17:46.991Z,80.37
2018-11-28T21:20:16.426Z,93.40
2018-11-28T21:22:47.435Z,96.83
2018-11-28T21:25:15.853Z,93.70
2018-11-28T21:27:44.300Z,58.63
2018-11-28T21:30:14.127Z,100.67
2018-11-28T21:32:42.622Z,88.57
2018-11-28T21:35:12.732Z,100.10
2018-11-28T21:37:41.208Z,75.20
2018-11-28T21:40:10.233Z,112.87
2018-11-28T21:42:38.634Z,108.27
2018-11-28T21:45:09.557Z,100.90
2018-11-28T21:47:37.995Z,85.00
2018-11-28T21:50:08.658Z,95.73
2018-11-28T21:52:37.031Z,101.57
2018-11-28T21:55:06.534Z,99.70
2018-11-28T21:57:34.891Z,108.73
2018-11-28T22:00:03.342Z,85.93
2018-11-28T22:02:31.765Z,107.80
2018-11-28T22:05:00.155Z,101.53
2018-11-28T22:07:28.519Z,61.67
2018-11-28T22:09:56.915Z,113.43
2018-11-28T22:12:25.270Z,71.33
2018-11-28T22:14:53.675Z,79.33
2018-11-28T22:17:22.039Z,75.50
2018-11-28T22:19:50.412Z,85.67
2018-11-28T22:22:18.815Z,92.03
2018-11-28T22:24:47.270Z,71.57
2018-11-28T22:27:15.684Z,103.07
2018-11-28T22:29:44.042Z,99.30
2018-11-28T22:32:12.564Z,106.57
2018-11-28T22:34:40.940Z,103.97
2018-11-28T22:37:09.423Z,55.70
2018-11-28T22:39:37.868Z,96.47
2018-11-28T22:42:06.475Z,104.13
2018-11-28T22:44:34.936Z,83.20
2018-11-28T22:47:03.336Z,81.73
2018-11-28T22:49:31.691Z,88.77
2018-11-28T22:52:00.076Z,88.83
2018-11-28T22:54:28.434Z,84.80
2018-11-28T22:56:56.846Z,114.77
2018-11-28T22:59:25.213Z,89.53
2018-11-28T23:03:00.324Z,95.63
2018-11-28T23:05:32.748Z,87.77
2018-11-28T23:08:02.052Z,77.43
2018-11-28T23:10:30.514Z,101.33
2018-11-28T23:12:58.918Z,84.43
2018-11-28T23:15:27.398Z,91.30
2018-11-28T23:17:55.875Z,102.40
2018-11-28T23:20:24.339Z,91.37
2018-11-28T23:22:52.736Z,79.67
2018-11-28T23:25:21.205Z,54.73
2018-11-28T23:27:49.604Z,110.37
2018-11-28T23:30:19.812Z,86.30
2018-11-28T23:32:49.012Z,102.93
2018-11-28T23:35:17.795Z,96.22
2018-11-28T23:37:47.418Z,96.50
2018-11-28T23:40:23.823Z,101.77
2018-11-28T23:42:52.971Z,90.92
2018-11-28T23:45:21.566Z,84.60
2018-11-28T23:47:50.146Z,76.47
2018-11-28T23:50:22.316Z,93.93
2018-11-28T23:52:51.551Z,77.43
2018-11-28T23:55:20.803Z,78.67
2018-11-28T23:57:49.295Z,96.28
